createdAt,value
2019-04-05T00:00:19.029Z,12.03
2019-04-05T00:02:47.357Z,11.80
2019-04-05T00:05:16.234Z,12.43
2019-04-05T00:07:44.642Z,13.30
2019-04-05T00:10:13.434Z,11.12
2019-04-05T00:12:41.709Z,10.20
2019-04-05T00:15:15.592Z,11.30
2019-04-05T00:17:40.449Z,11.80
2019-04-05T00:20:09.318Z,11.45
2019-04-05T00:22:37.670Z,10.50
2019-04-05T00:25:07.587Z,12.27
2019-04-05T00:27:35.917Z,11.27
2019-04-05T00:30:07.519Z,12.47
2019-04-05T00:32:35.891Z,11.87
2019-04-05T00:35:08.635Z,10.47
2019-04-05T00:37:37.027Z,12.35
2019-04-05T00:40:09.774Z,11.30
2019-04-05T00:42:38.080Z,11.13
2019-04-05T00:45:07.443Z,11.97
2019-04-05T00:47:35.826Z,12.60
2019-04-05T00:50:08.939Z,11.57
2019-04-05T00:52:37.277Z,13.40
2019-04-05T00:55:08.884Z,12.10
2019-04-05T00:57:37.181Z,9.33
2019-04-05T01:00:09.273Z,11.23
2019-04-05T01:02:37.596Z,11.05
2019-04-05T01:05:07.307Z,11.85
2019-04-05T01:07:36.196Z,11.60
2019-04-05T01:10:06.244Z,13.28
2019-04-05T01:12:34.574Z,13.37
2019-04-05T01:15:02.954Z,13.27
2019-04-05T01:17:31.243Z,11.77
2019-04-05T01:20:02.408Z,13.43
2019-04-05T01:22:32.526Z,14.10
2019-04-05T01:25:01.409Z,12.88
2019-04-05T01:27:30.857Z,12.23
2019-04-05T01:29:59.247Z,11.87
2019-04-05T01:32:27.628Z,12.60
2019-04-05T01:34:55.947Z,12.37
2019-04-05T01:37:24.623Z,13.73
2019-04-05T01:39:52.993Z,12.10
2019-04-05T01:42:21.384Z,12.60
2019-04-05T01:44:51.941Z,12.70
2019-04-05T01:47:20.580Z,11.38
2019-04-05T01:49:48.961Z,11.65
2019-04-05T01:52:17.560Z,12.03
2019-04-05T01:54:45.932Z,13.30
2019-04-05T01:57:14.236Z,14.77
2019-04-05T01:59:42.632Z,12.03
2019-04-05T02:02:11.006Z,13.47
2019-04-05T02:04:39.345Z,12.90
2019-04-05T02:07:07.737Z,12.30
2019-04-05T02:09:36.437Z,12.63
2019-04-05T02:12:04.991Z,12.37
2019-04-05T02:14:33.394Z,13.20
2019-04-05T02:17:01.736Z,13.33
2019-04-05T02:19:30.152Z,12.80
2019-04-05T02:21:58.458Z,12.43
2019-04-05T02:24:26.893Z,12.00
2019-04-05T02:26:55.285Z,12.40
2019-04-05T02:29:23.661Z,12.53
2019-04-05T02:31:51.998Z,13.88
2019-04-05T02:34:20.294Z,13.73
2019-04-05T02:36:48.828Z,12.17
2019-04-05T02:39:17.609Z,14.20
2019-04-05T02:41:46.104Z,12.90
2019-04-05T02:44:14.478Z,13.13
2019-04-05T02:46:44.328Z,13.17
2019-04-05T02:49:13.727Z,12.53
2019-04-05T02:51:43.467Z,13.10
2019-04-05T02:54:12.368Z,13.20
2019-04-05T02:56:40.678Z,13.30
2019-04-05T02:59:09.074Z,13.77
2019-04-05T03:01:37.445Z,12.17
2019-04-05T03:04:06.143Z,13.90
2019-04-05T03:06:34.613Z,13.22
2019-04-05T03:09:06.294Z,13.60
2019-04-05T03:11:36.262Z,14.67
2019-04-05T03:14:05.005Z,14.77
2019-04-05T03:16:40.713Z,12.85
2019-04-05T03:19:08.316Z,12.17
2019-04-05T03:21:39.773Z,14.20
2019-04-05T03:24:10.408Z,14.27
2019-04-05T03:26:42.063Z,14.03
2019-04-05T03:29:10.840Z,13.70
2019-04-05T03:31:39.561Z,13.90
2019-04-05T03:34:08.091Z,11.03
2019-04-05T03:36:38.176Z,13.22
2019-04-05T03:39:07.142Z,13.17
2019-04-05T03:41:35.822Z,18.40
2019-04-05T03:44:04.386Z,15.00
2019-04-05T03:46:32.865Z,15.87
2019-04-05T03:49:01.727Z,12.40
2019-04-05T03:51:30.629Z,14.50
2019-04-05T03:53:59.687Z,16.67
2019-04-05T03:56:28.076Z,13.50
2019-04-05T03:58:56.652Z,17.10
2019-04-05T04:01:24.986Z,16.60
2019-04-05T04:03:53.360Z,17.53
2019-04-05T04:06:22.221Z,18.30
2019-04-05T04:08:50.598Z,18.47
2019-04-05T04:11:19.003Z,17.77
2019-04-05T04:13:47.382Z,20.00
2019-04-05T04:16:16.759Z,21.03
2019-04-05T04:18:45.555Z,21.33
2019-04-05T04:21:37.474Z,21.77
2019-04-05T04:24:06.030Z,20.88
2019-04-05T04:26:34.754Z,21.17
2019-04-05T04:29:03.657Z,21.43
2019-04-05T04:31:32.025Z,20.27
2019-04-05T04:34:00.741Z,22.60
2019-04-05T04:36:29.111Z,21.07
2019-04-05T04:38:57.789Z,19.03
2019-04-05T04:41:26.160Z,20.67
2019-04-05T04:43:55.129Z,33.77
2019-04-05T04:46:23.858Z,21.93
2019-04-05T04:48:52.831Z,21.03
2019-04-05T04:51:21.620Z,21.77
2019-04-05T04:53:49.998Z,20.72
2019-04-05T04:56:18.395Z,22.80
2019-04-05T04:58:46.771Z,20.40
2019-04-05T05:01:15.182Z,21.93
2019-04-05T05:03:43.748Z,21.80
2019-04-05T05:06:12.121Z,22.70
2019-04-05T05:08:40.509Z,23.80
2019-04-05T05:11:14.342Z,22.80
2019-04-05T05:13:38.935Z,22.03
2019-04-05T05:16:07.314Z,22.77
2019-04-05T05:18:36.040Z,26.70
2019-04-05T05:21:04.781Z,22.30
2019-04-05T05:23:33.985Z,23.30
2019-04-05T05:26:03.056Z,23.97
2019-04-05T05:28:32.892Z,26.27
2019-04-05T05:31:01.433Z,26.77
2019-04-05T05:33:29.809Z,24.70
2019-04-05T05:35:58.206Z,26.07
2019-04-05T05:38:26.991Z,27.27
2019-04-05T05:40:55.311Z,25.67
2019-04-05T05:43:24.583Z,27.40
2019-04-05T05:45:52.904Z,27.47
2019-04-05T05:48:21.381Z,26.23
2019-04-05T05:50:49.759Z,26.40
2019-04-05T05:53:18.085Z,25.47
2019-04-05T05:55:46.743Z,26.27
2019-04-05T05:58:15.073Z,28.15
2019-04-05T06:00:43.387Z,25.90
2019-04-05T06:03:12.035Z,23.77
2019-04-05T06:05:40.689Z,22.53
2019-04-05T06:08:09.360Z,24.90
2019-04-05T06:10:37.674Z,23.90
2019-04-05T06:13:07.206Z,24.87
2019-04-05T06:15:37.605Z,24.50
2019-04-05T06:18:06.187Z,25.37
2019-04-05T06:20:34.560Z,24.55
2019-04-05T06:23:02.936Z,24.23
2019-04-05T06:25:31.348Z,27.45
2019-04-05T06:28:00.059Z,25.10
2019-04-05T06:30:28.969Z,26.17
2019-04-05T06:32:57.583Z,27.33
2019-04-05T06:35:25.911Z,25.87
2019-04-05T06:37:54.210Z,26.87
2019-04-05T06:40:22.853Z,25.33
2019-04-05T06:42:51.165Z,25.72
2019-04-05T06:45:19.482Z,23.87
2019-04-05T06:47:48.194Z,26.00
2019-04-05T06:50:16.484Z,25.63
2019-04-05T06:52:44.946Z,26.47
2019-04-05T06:55:13.445Z,26.43
2019-04-05T06:57:41.777Z,25.93
2019-04-05T07:00:10.235Z,27.10
2019-04-05T07:02:38.667Z,24.23
2019-04-05T07:05:07.409Z,27.13
2019-04-05T07:07:36.158Z,26.80
2019-04-05T07:10:05.636Z,27.32
2019-04-05T07:12:33.947Z,27.67
2019-04-05T07:15:02.353Z,27.57
2019-04-05T07:17:30.725Z,26.63
2019-04-05T07:19:59.279Z,25.70
2019-04-05T07:22:38.445Z,25.90
2019-04-05T07:24:57.842Z,23.77
2019-04-05T07:27:26.170Z,26.70
2019-04-05T07:29:54.480Z,28.60
2019-04-05T07:32:22.788Z,28.77
2019-04-05T07:34:51.394Z,26.33
2019-04-05T07:37:19.710Z,28.90
2019-04-05T07:39:48.046Z,28.10
2019-04-05T07:42:16.366Z,25.27
2019-04-05T07:44:44.741Z,27.80
2019-04-05T07:47:13.074Z,28.20
2019-04-05T07:49:41.723Z,30.30
2019-04-05T07:52:12.878Z,28.80
2019-04-05T07:54:40.637Z,30.70
2019-04-05T07:57:08.964Z,28.00
2019-04-05T07:59:37.275Z,27.90
2019-04-05T08:02:05.653Z,30.83
2019-04-05T08:04:34.365Z,30.40
2019-04-05T08:07:04.694Z,27.67
2019-04-05T08:09:34.098Z,28.60
2019-04-05T08:12:03.199Z,29.23
2019-04-05T08:14:31.661Z,28.13
2019-04-05T08:17:00.043Z,32.00
2019-04-05T08:19:28.442Z,29.80
2019-04-05T08:21:56.748Z,27.77
2019-04-05T08:24:25.126Z,26.80
2019-04-05T08:26:53.455Z,30.50
2019-04-05T08:29:21.771Z,29.80
2019-04-05T08:31:50.118Z,27.30
2019-04-05T08:34:18.428Z,31.27
2019-04-05T08:36:46.733Z,28.60
2019-04-05T08:39:15.077Z,29.07
2019-04-05T08:41:43.383Z,28.60
2019-04-05T08:44:11.851Z,28.13
2019-04-05T08:46:40.164Z,30.17
2019-04-05T08:49:11.154Z,29.02
2019-04-05T08:51:38.598Z,31.17
2019-04-05T08:54:06.920Z,31.07
2019-04-05T08:56:35.309Z,31.42
2019-04-05T08:59:03.758Z,33.23
2019-04-05T09:01:32.160Z,33.17
2019-04-05T09:04:00.471Z,33.83
2019-04-05T09:06:28.812Z,28.97
2019-04-05T09:08:57.179Z,30.70
2019-04-05T09:11:25.518Z,30.47
2019-04-05T09:13:53.829Z,31.77
2019-04-05T09:16:22.203Z,29.77
2019-04-05T09:18:50.529Z,35.77
2019-04-05T09:21:18.866Z,34.43
2019-04-05T09:23:47.166Z,32.60
2019-04-05T09:26:15.499Z,33.73
2019-04-05T09:28:43.822Z,34.47
2019-04-05T09:31:12.116Z,37.87
2019-04-05T09:33:40.446Z,33.67
2019-04-05T09:36:09.006Z,34.20
2019-04-05T09:38:37.388Z,33.50
2019-04-05T09:41:06.192Z,33.10
2019-04-05T09:43:34.761Z,36.47
2019-04-05T09:46:03.665Z,31.87
2019-04-05T09:48:31.983Z,30.27
2019-04-05T09:51:00.473Z,30.43
2019-04-05T09:53:28.767Z,30.57
2019-04-05T09:55:57.167Z,31.37
2019-04-05T09:58:25.484Z,31.43
2019-04-05T10:00:53.859Z,28.47
2019-04-05T10:03:22.188Z,30.77
2019-04-05T10:05:50.904Z,26.87
2019-04-05T10:08:19.227Z,28.23
2019-04-05T10:10:47.870Z,31.73
2019-04-05T10:13:16.264Z,42.10
2019-04-05T10:15:44.584Z,44.53
2019-04-05T10:18:13.220Z,43.87
2019-04-05T10:20:41.548Z,36.80
2019-04-05T10:23:10.897Z,34.73
2019-04-05T10:25:39.231Z,35.63
2019-04-05T10:28:07.596Z,34.10
2019-04-05T10:30:35.918Z,32.40
2019-04-05T10:33:04.499Z,35.00
2019-04-05T10:35:32.835Z,31.93
2019-04-05T10:38:01.282Z,30.33
2019-04-05T10:40:29.607Z,33.23
2019-04-05T10:42:58.709Z,32.17
2019-04-05T10:45:27.469Z,31.00
2019-04-05T10:47:55.864Z,31.70
2019-04-05T10:50:24.244Z,32.20
2019-04-05T10:52:53.021Z,32.20
2019-04-05T10:55:21.345Z,30.77
2019-04-05T10:57:51.360Z,29.93
2019-04-05T11:00:21.196Z,32.07
2019-04-05T11:02:49.790Z,31.13
2019-04-05T11:05:18.124Z,28.70
2019-04-05T11:07:46.498Z,29.87
2019-04-05T11:10:15.986Z,31.07
2019-04-05T11:12:44.295Z,28.83
2019-04-05T11:15:15.275Z,30.70
2019-04-05T11:17:43.799Z,30.40
2019-04-05T11:20:21.064Z,31.30
2019-04-05T11:22:46.399Z,28.40
2019-04-05T11:25:13.681Z,28.73
2019-04-05T11:27:42.011Z,28.27
2019-04-05T11:30:11.447Z,33.13
2019-04-05T11:32:39.840Z,28.03
2019-04-05T11:35:08.785Z,29.47
2019-04-05T11:37:39.546Z,28.53
2019-04-05T11:40:09.515Z,28.47
2019-04-05T11:42:38.248Z,28.23
2019-04-05T11:45:10.321Z,29.50
2019-04-05T11:47:39.210Z,28.67
2019-04-05T11:50:12.044Z,30.30
2019-04-05T11:52:40.351Z,26.93
2019-04-05T11:55:09.419Z,27.00
2019-04-05T11:57:40.962Z,27.57
2019-04-05T12:00:15.576Z,28.13
2019-04-05T12:02:45.565Z,27.60
2019-04-05T12:05:15.581Z,27.30
2019-04-05T12:07:44.240Z,26.37
2019-04-05T12:10:14.244Z,27.73
2019-04-05T12:12:43.020Z,28.87
2019-04-05T12:15:11.594Z,26.90
2019-04-05T12:17:39.961Z,30.03
2019-04-05T12:20:09.681Z,29.47
2019-04-05T12:22:38.011Z,29.80
2019-04-05T12:25:07.592Z,28.57
2019-04-05T12:27:36.373Z,27.20
2019-04-05T12:30:07.735Z,27.57
2019-04-05T12:32:41.088Z,26.70
2019-04-05T12:35:08.400Z,27.33
2019-04-05T12:37:49.525Z,26.05
2019-04-05T12:40:10.154Z,28.27
2019-04-05T12:42:38.239Z,27.52
2019-04-05T12:45:07.384Z,27.63
2019-04-05T12:47:35.782Z,27.52
2019-04-05T12:50:08.208Z,24.80
2019-04-05T12:52:36.598Z,25.97
2019-04-05T12:55:06.806Z,28.30
2019-04-05T12:57:35.196Z,28.65
2019-04-05T13:00:05.603Z,28.07
2019-04-05T13:02:34.244Z,26.23
2019-04-05T13:05:03.246Z,28.50
2019-04-05T13:07:34.787Z,25.60
2019-04-05T13:10:01.640Z,24.57
2019-04-05T13:12:29.929Z,25.63
2019-04-05T13:15:11.183Z,27.03
2019-04-05T13:17:31.005Z,26.37
2019-04-05T13:20:00.663Z,25.67
2019-04-05T13:22:28.364Z,25.47
2019-04-05T13:24:56.689Z,27.47
2019-04-05T13:27:25.289Z,28.77
2019-04-05T13:29:53.617Z,27.63
2019-04-05T13:32:22.581Z,25.37
2019-04-05T13:34:50.877Z,25.77
2019-04-05T13:37:20.768Z,25.50
2019-04-05T13:39:49.204Z,28.23
2019-04-05T13:42:17.530Z,27.67
2019-04-05T13:44:45.833Z,25.50
2019-04-05T13:47:14.228Z,27.20
2019-04-05T13:49:42.529Z,29.63
2019-04-05T13:52:12.062Z,26.60
2019-04-05T13:54:41.042Z,29.45
2019-04-05T13:57:11.420Z,29.00
2019-04-05T13:59:39.577Z,27.47
2019-04-05T14:02:07.956Z,27.20
2019-04-05T14:04:36.280Z,28.00
2019-04-05T14:07:04.657Z,29.07
2019-04-05T14:09:32.964Z,26.07
2019-04-05T14:12:01.274Z,24.00
2019-04-05T14:14:29.598Z,26.80
2019-04-05T14:16:57.906Z,27.03
2019-04-05T14:19:28.690Z,28.77
2019-04-05T14:22:07.839Z,27.30
2019-04-05T14:24:26.524Z,27.50
2019-04-05T14:26:54.848Z,29.17
2019-04-05T14:29:23.233Z,28.27
2019-04-05T14:31:51.931Z,28.52
2019-04-05T14:34:23.436Z,27.87
2019-04-05T14:36:51.958Z,27.40
2019-04-05T14:39:20.401Z,27.70
2019-04-05T14:41:48.742Z,29.15
2019-04-05T14:44:17.416Z,29.90
2019-04-05T14:46:46.160Z,28.67
2019-04-05T14:49:14.495Z,28.85
2019-04-05T14:51:52.398Z,27.47
2019-04-05T14:54:12.948Z,31.30
2019-04-05T14:56:41.250Z,28.03
2019-04-05T14:59:09.642Z,28.37
2019-04-05T15:01:38.336Z,27.80
2019-04-05T15:04:06.669Z,27.77
2019-04-05T15:06:35.015Z,27.85
2019-04-05T15:09:04.007Z,25.00
2019-04-05T15:11:32.340Z,30.33
2019-04-05T15:14:00.974Z,29.80
2019-04-05T15:16:29.363Z,29.37
2019-04-05T15:18:57.661Z,28.95
2019-04-05T15:21:26.004Z,28.63
2019-04-05T15:23:54.319Z,28.32
2019-04-05T15:26:22.652Z,27.40
2019-04-05T15:28:54.646Z,28.67
2019-04-05T15:31:21.021Z,26.33
2019-04-05T15:33:49.657Z,27.17
2019-04-05T15:36:17.963Z,27.17
2019-04-05T15:38:46.287Z,25.73
2019-04-05T15:41:14.585Z,26.53
2019-04-05T15:43:42.908Z,24.10
2019-04-05T15:46:11.218Z,25.60
2019-04-05T15:48:39.550Z,24.43
2019-04-05T15:51:07.870Z,23.20
2019-04-05T15:53:36.192Z,21.93
2019-04-05T15:56:04.921Z,22.32
2019-04-05T15:58:34.122Z,19.67
2019-04-05T16:01:04.871Z,18.13
2019-04-05T16:03:33.286Z,18.90
2019-04-05T16:06:01.624Z,18.98
2019-04-05T16:08:29.989Z,17.03
2019-04-05T16:10:58.380Z,12.40
2019-04-05T16:13:26.838Z,9.73
2019-04-05T16:15:55.170Z,8.23
2019-04-05T16:18:23.470Z,8.10
2019-04-05T16:20:51.831Z,8.20
2019-04-05T16:23:20.159Z,9.10
2019-04-05T16:25:48.456Z,8.57
2019-04-05T16:28:16.795Z,8.40
2019-04-05T16:30:45.228Z,8.53
2019-04-05T16:33:13.569Z,7.87
2019-04-05T16:35:41.931Z,6.20
2019-04-05T16:38:10.253Z,6.57
2019-04-05T16:40:39.142Z,8.20
2019-04-05T16:43:07.509Z,7.37
2019-04-05T16:45:38.471Z,5.30
2019-04-05T16:48:06.037Z,8.33
2019-04-05T16:50:34.714Z,7.70
2019-04-05T16:53:03.493Z,7.42
2019-04-05T16:55:31.879Z,5.47
2019-04-05T16:58:00.577Z,6.30
2019-04-05T17:00:28.873Z,6.07
2019-04-05T17:02:57.257Z,5.37
2019-04-05T17:05:25.550Z,6.50
2019-04-05T17:07:54.925Z,4.92
2019-04-05T17:10:23.400Z,4.67
2019-04-05T17:12:52.093Z,4.70
2019-04-05T17:15:20.425Z,4.53
2019-04-05T17:17:48.773Z,5.10
2019-04-05T17:20:17.122Z,4.40
2019-04-05T17:22:57.536Z,5.57
2019-04-05T17:25:15.593Z,5.47
2019-04-05T17:27:43.887Z,4.23
2019-04-05T17:30:12.334Z,4.70
2019-04-05T17:32:40.630Z,4.40
2019-04-05T17:35:09.215Z,4.87
2019-04-05T17:37:37.580Z,5.97
2019-04-05T17:40:09.039Z,6.75
2019-04-05T17:42:37.810Z,6.43
2019-04-05T17:45:10.314Z,6.70
2019-04-05T17:47:38.689Z,7.10
2019-04-05T17:50:10.456Z,5.90
2019-04-05T17:52:38.080Z,5.83
2019-04-05T17:55:06.624Z,7.00
2019-04-05T17:57:34.960Z,6.70
2019-04-05T18:00:05.246Z,7.57
2019-04-05T18:02:33.628Z,6.90
2019-04-05T18:05:01.959Z,7.50
2019-04-05T18:07:30.268Z,8.48
2019-04-05T18:09:58.584Z,6.70
2019-04-05T18:12:27.185Z,6.63
2019-04-05T18:14:55.512Z,7.83
2019-04-05T18:17:23.829Z,7.80
2019-04-05T18:19:52.223Z,8.90
2019-04-05T18:22:20.603Z,10.30
2019-04-05T18:24:48.978Z,6.70
2019-04-05T18:27:17.330Z,8.55
2019-04-05T18:29:45.782Z,7.67
2019-04-05T18:32:14.353Z,8.40
2019-04-05T18:34:42.684Z,8.70
2019-04-05T18:37:11.006Z,8.07
2019-04-05T18:39:39.504Z,8.83
2019-04-05T18:42:07.840Z,30.08
2019-04-05T18:44:36.150Z,9.80
2019-04-05T18:47:04.662Z,8.67
2019-04-05T18:49:32.969Z,8.43
2019-04-05T18:52:01.357Z,7.93
2019-04-05T18:54:30.393Z,7.67
2019-04-05T18:56:58.886Z,9.07
2019-04-05T18:59:27.353Z,8.57
2019-04-05T19:01:56.253Z,7.20
2019-04-05T19:04:24.767Z,10.43
2019-04-05T19:06:53.094Z,9.37
2019-04-05T19:09:21.674Z,9.33
2019-04-05T19:11:50.236Z,9.13
2019-04-05T19:14:18.716Z,23.47
2019-04-05T19:16:47.268Z,25.93
2019-04-05T19:19:17.838Z,8.80
2019-04-05T19:21:45.962Z,9.33
2019-04-05T19:24:14.476Z,9.20
2019-04-05T19:26:43.296Z,8.67
2019-04-05T19:29:11.677Z,8.67
2019-04-05T19:49:12.493Z,8.80
2019-04-05T19:51:40.878Z,9.70
2019-04-05T19:54:09.185Z,8.90
2019-04-05T19:56:37.969Z,8.83
2019-04-05T19:59:06.472Z,8.00
2019-04-05T20:01:35.340Z,91.70
2019-04-05T20:04:03.733Z,12.17
2019-04-05T20:06:32.358Z,8.17
2019-04-05T20:09:01.091Z,8.50
2019-04-05T20:11:29.397Z,7.63
2019-04-05T20:13:58.267Z,8.73
2019-04-05T20:16:28.562Z,8.63
2019-04-05T20:18:56.623Z,8.60
2019-04-05T20:21:24.949Z,8.55
2019-04-05T20:23:53.262Z,7.47
2019-04-05T20:26:21.712Z,6.50
2019-04-05T20:28:50.199Z,8.63
2019-04-05T20:31:18.670Z,7.93
2019-04-05T20:33:47.057Z,7.40
2019-04-05T20:36:15.366Z,7.03
2019-04-05T20:38:44.182Z,6.17
2019-04-05T20:41:12.552Z,7.17
2019-04-05T20:43:40.884Z,6.37
2019-04-05T20:46:09.514Z,6.80
2019-04-05T20:48:38.034Z,9.18
2019-04-05T20:51:06.424Z,8.03
2019-04-05T20:53:34.723Z,7.70
2019-04-05T20:56:03.116Z,6.93
2019-04-05T20:58:31.422Z,6.83
2019-04-05T21:00:59.737Z,6.57
2019-04-05T21:03:28.042Z,7.12
2019-04-05T21:05:56.393Z,70.83
2019-04-05T21:08:24.742Z,13.03
2019-04-05T21:10:53.108Z,8.43
2019-04-05T21:13:21.439Z,8.00
2019-04-05T21:15:50.063Z,7.73
2019-04-05T21:18:18.394Z,8.10
2019-04-05T21:20:47.115Z,8.03
2019-04-05T21:23:15.441Z,7.80
2019-04-05T21:25:43.772Z,8.00
2019-04-05T21:28:12.082Z,8.27
2019-04-05T21:30:40.389Z,8.33
2019-04-05T21:33:08.804Z,7.97
2019-04-05T21:35:37.108Z,8.67
2019-04-05T21:38:05.424Z,8.63
2019-04-05T21:40:33.765Z,8.63
2019-04-05T21:43:02.068Z,8.93
2019-04-05T21:45:30.432Z,8.10
2019-04-05T21:47:59.128Z,9.60
2019-04-05T21:50:27.524Z,8.90
2019-04-05T21:52:55.832Z,8.57
2019-04-05T21:55:24.678Z,9.03
2019-04-05T21:57:53.013Z,7.87
2019-04-05T22:00:33.882Z,8.48
2019-04-05T22:03:02.686Z,7.33
2019-04-05T22:05:31.064Z,17.17
2019-04-05T22:07:59.403Z,14.30
2019-04-05T22:10:27.770Z,9.50
2019-04-05T22:12:56.102Z,7.80
2019-04-05T22:15:24.388Z,7.60
2019-04-05T22:17:52.775Z,7.43
2019-04-05T22:20:21.084Z,8.50
2019-04-05T22:22:49.760Z,7.10
2019-04-05T22:25:18.477Z,7.80
2019-04-05T22:27:46.777Z,8.93
2019-04-05T22:30:15.165Z,7.27
2019-04-05T22:32:43.470Z,7.67
2019-04-05T22:35:11.856Z,8.90
2019-04-05T22:37:40.358Z,8.80
2019-04-05T22:40:08.768Z,7.07
2019-04-05T22:42:37.288Z,9.17
2019-04-05T22:45:07.325Z,9.03
2019-04-05T22:47:36.559Z,9.93
2019-04-05T22:50:07.029Z,10.80
2019-04-05T22:52:36.019Z,10.32
2019-04-05T22:55:11.249Z,10.50
2019-04-05T22:57:35.382Z,40.77
2019-04-05T23:00:05.905Z,11.50
2019-04-05T23:02:34.212Z,10.90
2019-04-05T23:05:02.774Z,12.07
2019-04-05T23:07:31.085Z,11.78
2019-04-05T23:09:59.480Z,11.33
2019-04-05T23:12:27.924Z,10.53
2019-04-05T23:14:56.316Z,12.00
2019-04-05T23:17:24.685Z,11.53
2019-04-05T23:19:53.005Z,12.20
2019-04-05T23:22:21.309Z,10.80
2019-04-05T23:24:49.612Z,12.05
2019-04-05T23:27:17.936Z,10.60
2019-04-05T23:29:46.245Z,10.63
2019-04-05T23:32:14.566Z,12.60
2019-04-05T23:34:42.960Z,12.40
2019-04-05T23:37:11.303Z,11.20
2019-04-05T23:39:39.632Z,11.73
2019-04-05T23:42:07.961Z,12.50
2019-04-05T23:44:36.409Z,11.20
2019-04-05T23:47:04.776Z,12.67
2019-04-05T23:49:33.199Z,12.63
2019-04-05T23:52:01.870Z,12.98
2019-04-05T23:54:30.202Z,12.40
2019-04-05T23:56:58.501Z,13.37
2019-04-05T23:59:27.181Z,13.00
